Time;durP1;ratioP1;P1;durP2;ratioP2;P2;SDS_P1;SDS_P2;PMS_P1;PMS_P2;Temp;Humidity;BMP_temperature;BMP_pressure;BME280_temperature;BME280_humidity;BME280_pressure;Samples;Min_cycle;Max_cycle;Signal;HPM_P1;HPM_P2
2022/07/02 00:01:57;;;;;;;1.20;1.20;;;11.60;99.90;;;;;;492371;241;28687;-70
2022/07/02 00:03:58;;;;;;;1.77;1.20;;;11.60;99.90;;;;;;492235;241;28153;-70
2022/07/02 00:06:00;;;;;;;1.37;1.30;;;11.60;99.90;;;;;;492344;241;27938;-73
2022/07/02 00:08:01;;;;;;;1.57;1.20;;;11.50;99.90;;;;;;492370;241;28281;-70
2022/07/02 00:10:02;;;;;;;1.30;1.30;;;11.50;99.90;;;;;;492394;241;28045;-71
2022/07/02 00:12:03;;;;;;;1.57;1.47;;;11.60;99.90;;;;;;492388;241;28025;-70
2022/07/02 00:14:05;;;;;;;1.37;1.20;;;11.60;99.90;;;;;;492309;241;28185;-70
2022/07/02 00:16:06;;;;;;;1.30;1.20;;;11.50;99.90;;;;;;492387;241;28017;-73
2022/07/02 00:18:07;;;;;;;1.10;1.10;;;11.50;99.90;;;;;;492385;241;27904;-70
2022/07/02 00:20:08;;;;;;;1.53;1.30;;;11.30;99.90;;;;;;492347;241;28265;-70
2022/07/02 00:22:10;;;;;;;1.40;1.30;;;11.30;99.90;;;;;;492386;241;28631;-71
2022/07/02 00:24:11;;;;;;;1.13;1.10;;;11.40;99.90;;;;;;492331;241;28620;-70
2022/07/02 00:26:12;;;;;;;1.50;1.40;;;11.30;99.90;;;;;;492374;241;28645;-73
2022/07/02 00:28:13;;;;;;;1.20;1.20;;;11.40;99.90;;;;;;492392;241;28455;-71
2022/07/02 00:30:15;;;;;;;1.57;1.47;;;11.40;99.90;;;;;;492266;241;28021;-71
2022/07/02 00:32:16;;;;;;;1.30;1.30;;;11.30;99.90;;;;;;492407;241;27960;-70
2022/07/02 00:34:17;;;;;;;1.07;1.07;;;11.30;99.90;;;;;;492368;241;27934;-70
2022/07/02 00:36:24;;;;;;;1.10;1.10;;;11.20;99.90;;;;;;492434;241;27919;-70
2022/07/02 00:38:26;;;;;;;1.57;1.47;;;11.20;99.90;;;;;;492393;241;28404;-71
2022/07/02 00:40:27;;;;;;;1.23;1.23;;;11.20;99.90;;;;;;492227;241;27947;-72
2022/07/02 00:42:28;;;;;;;1.20;1.20;;;11.20;99.90;;;;;;492412;241;28031;-70
2022/07/02 00:44:29;;;;;;;1.53;1.40;;;11.20;99.90;;;;;;492390;241;27813;-71
2022/07/02 00:46:31;;;;;;;1.20;1.20;;;11.30;99.90;;;;;;492381;241;28028;-75
2022/07/02 00:48:32;;;;;;;1.40;1.40;;;11.30;99.90;;;;;;492397;241;27814;-70
2022/07/02 00:50:33;;;;;;;1.60;1.50;;;11.30;99.90;;;;;;492287;241;28036;-71
2022/07/02 00:52:34;;;;;;;1.20;1.20;;;11.20;99.90;;;;;;492421;241;27701;-70
2022/07/02 00:54:36;;;;;;;1.40;1.33;;;11.10;99.90;;;;;;492402;241;28074;-70
2022/07/02 00:56:37;;;;;;;1.20;1.20;;;11.10;99.90;;;;;;492354;241;27971;-73
2022/07/02 00:58:38;;;;;;;1.20;1.20;;;11.00;99.90;;;;;;492210;241;28330;-71
2022/07/02 01:00:39;;;;;;;1.67;1.20;;;11.00;99.90;;;;;;492294;241;28568;-70
2022/07/02 01:02:41;;;;;;;1.20;1.20;;;11.00;99.90;;;;;;492369;241;28181;-70
2022/07/02 01:04:42;;;;;;;1.50;1.40;;;11.00;99.90;;;;;;492378;241;27903;-70
2022/07/02 01:06:43;;;;;;;1.10;1.10;;;11.00;99.90;;;;;;492308;241;27714;-72
2022/07/02 01:11:04;;;;;;;1.43;1.33;;;11.00;99.90;;;;;;492329;241;28638;-71
2022/07/02 01:13:05;;;;;;;1.20;1.20;;;10.90;99.90;;;;;;492225;241;28188;-72
2022/07/02 01:15:06;;;;;;;1.10;1.10;;;10.90;99.90;;;;;;492390;241;28463;-70
2022/07/02 01:17:08;;;;;;;1.27;1.27;;;10.90;99.90;;;;;;492335;241;28466;-70
2022/07/02 01:19:09;;;;;;;1.40;1.30;;;10.80;99.90;;;;;;492356;241;27792;-70
2022/07/02 01:21:10;;;;;;;1.47;1.37;;;10.80;99.90;;;;;;492351;241;27948;-70
2022/07/02 01:23:11;;;;;;;1.20;1.20;;;10.70;99.90;;;;;;492381;241;28135;-71
2022/07/02 01:25:13;;;;;;;1.40;1.30;;;10.70;99.90;;;;;;492320;241;27912;-71
2022/07/02 01:27:14;;;;;;;1.63;1.30;;;10.80;99.90;;;;;;492336;241;27949;-71
2022/07/02 01:29:15;;;;;;;1.50;1.40;;;10.80;99.90;;;;;;492289;241;28003;-70
2022/07/02 01:31:18;;;;;;;1.60;1.50;;;10.80;99.90;;;;;;492383;241;27916;-71
2022/07/02 01:33:18;;;;;;;1.07;1.07;;;10.70;99.90;;;;;;492250;241;28035;-74
2022/07/02 01:35:19;;;;;;;1.30;1.30;;;10.70;99.90;;;;;;492400;241;27949;-70
2022/07/02 01:37:20;;;;;;;1.30;1.30;;;10.70;99.90;;;;;;492348;241;28501;-70
2022/07/02 01:39:21;;;;;;;1.33;1.33;;;10.70;99.90;;;;;;492367;241;28450;-71
2022/07/02 01:41:41;;;;;;;1.10;1.10;;;10.60;99.90;;;;;;492350;241;28271;-70
2022/07/02 01:43:42;;;;;;;1.57;1.30;;;10.60;99.90;;;;;;492095;241;28175;-75
2022/07/02 01:45:43;;;;;;;2.93;1.50;;;10.70;99.90;;;;;;492111;241;27874;-70
2022/07/02 01:47:44;;;;;;;1.60;1.17;;;10.80;99.90;;;;;;492335;241;27837;-71
2022/07/02 01:49:46;;;;;;;1.20;1.20;;;10.70;99.90;;;;;;492391;241;27966;-72
2022/07/02 01:51:47;;;;;;;1.33;1.33;;;10.60;99.90;;;;;;492155;241;27931;-70
2022/07/02 01:53:48;;;;;;;1.20;1.20;;;10.60;99.90;;;;;;492346;241;28139;-72
2022/07/02 01:55:49;;;;;;;1.73;1.67;;;10.60;99.90;;;;;;492361;241;28011;-70
2022/07/02 01:57:51;;;;;;;1.40;1.30;;;10.50;99.90;;;;;;492364;241;28019;-71
2022/07/02 01:59:52;;;;;;;1.20;1.20;;;10.50;99.90;;;;;;492240;241;29018;-70
2022/07/02 02:01:53;;;;;;;2.20;1.20;;;10.50;99.90;;;;;;492357;241;28274;-70
2022/07/02 02:03:54;;;;;;;1.20;1.20;;;10.50;99.90;;;;;;492339;241;28206;-72
2022/07/02 02:05:56;;;;;;;1.20;1.20;;;10.50;99.90;;;;;;492367;241;28363;-70
2022/07/02 02:07:57;;;;;;;1.37;1.27;;;10.60;99.90;;;;;;492310;241;27983;-71
2022/07/02 02:09:58;;;;;;;1.67;1.57;;;10.50;99.90;;;;;;492407;241;27716;-70
2022/07/02 02:11:59;;;;;;;1.43;1.33;;;10.50;99.90;;;;;;492363;241;27883;-70
2022/07/02 02:14:01;;;;;;;1.67;1.57;;;10.50;99.90;;;;;;492227;241;27870;-71
2022/07/02 02:16:02;;;;;;;1.33;1.20;;;10.40;99.90;;;;;;492224;241;27909;-70
2022/07/02 02:18:03;;;;;;;1.30;1.30;;;10.40;99.90;;;;;;492409;241;27892;-71
2022/07/02 02:20:04;;;;;;;1.60;1.50;;;10.30;99.90;;;;;;492418;241;27992;-70
2022/07/02 02:22:06;;;;;;;1.60;1.50;;;10.30;99.90;;;;;;492424;241;27905;-71
2022/07/02 02:24:07;;;;;;;1.63;1.53;;;10.30;99.90;;;;;;492273;241;28001;-71
2022/07/02 02:26:08;;;;;;;1.27;1.27;;;10.30;99.90;;;;;;492430;241;28484;-70
2022/07/02 02:28:09;;;;;;;1.50;1.40;;;10.20;99.90;;;;;;492345;241;28442;-71
2022/07/02 02:30:11;;;;;;;1.20;1.20;;;10.20;99.90;;;;;;492065;241;28655;-74
2022/07/02 02:32:12;;;;;;;1.33;1.23;;;10.10;99.90;;;;;;489507;241;27697;-70
2022/07/02 02:34:13;;;;;;;1.33;1.23;;;10.10;99.90;;;;;;489319;241;27998;-71
2022/07/02 02:36:14;;;;;;;1.60;1.40;;;10.20;99.90;;;;;;485450;245;27738;-70
2022/07/02 02:38:16;;;;;;;1.30;1.20;;;10.20;99.90;;;;;;485420;245;27625;-70
2022/07/02 02:40:17;;;;;;;1.23;1.23;;;10.20;99.90;;;;;;485448;245;27573;-71
2022/07/02 02:42:18;;;;;;;1.20;1.20;;;10.20;99.90;;;;;;485466;245;27753;-71
2022/07/02 02:44:20;;;;;;;1.20;1.20;;;10.20;99.90;;;;;;485468;245;28154;-72
2022/07/02 02:46:21;;;;;;;1.23;1.23;;;10.20;99.90;;;;;;485395;245;28045;-70
2022/07/02 02:48:22;;;;;;;1.40;1.40;;;10.10;99.90;;;;;;485435;245;28016;-71
2022/07/02 02:50:23;;;;;;;3.90;1.60;;;10.10;99.90;;;;;;485423;245;28424;-73
2022/07/02 02:52:24;;;;;;;1.40;1.40;;;10.10;99.90;;;;;;485465;245;28361;-70
2022/07/02 02:54:26;;;;;;;1.40;1.30;;;10.10;99.90;;;;;;485477;245;28453;-70
2022/07/02 02:56:27;;;;;;;1.30;1.30;;;10.00;99.90;;;;;;485405;245;28066;-70
2022/07/02 02:58:28;;;;;;;4.20;1.47;;;10.00;99.90;;;;;;485448;245;27901;-71
2022/07/02 03:00:29;;;;;;;1.50;1.40;;;9.90;99.90;;;;;;485443;245;27787;-73
2022/07/02 03:02:31;;;;;;;1.50;1.50;;;9.80;99.90;;;;;;489196;241;27962;-70
2022/07/02 03:04:32;;;;;;;2.00;1.47;;;9.80;99.90;;;;;;485423;245;27980;-71
2022/07/02 03:06:33;;;;;;;1.27;1.27;;;9.90;99.90;;;;;;490049;241;27918;-70
2022/07/02 03:08:35;;;;;;;1.40;1.40;;;10.00;99.90;;;;;;485401;245;27990;-71
2022/07/02 03:10:36;;;;;;;1.67;1.57;;;10.00;99.90;;;;;;485422;245;27910;-71
2022/07/02 03:12:37;;;;;;;1.33;1.33;;;10.00;99.90;;;;;;487311;241;27828;-71
2022/07/02 03:14:38;;;;;;;2.20;1.20;;;10.00;99.90;;;;;;487724;241;28573;-71
2022/07/02 03:16:40;;;;;;;1.27;1.27;;;10.00;99.90;;;;;;485431;245;28816;-70
2022/07/02 03:18:41;;;;;;;1.53;1.10;;;9.90;99.90;;;;;;485460;245;28438;-70
2022/07/02 03:20:42;;;;;;;1.33;1.30;;;9.90;99.90;;;;;;485451;245;28139;-73
2022/07/02 03:22:43;;;;;;;1.50;1.40;;;9.90;99.90;;;;;;485413;245;27709;-70
2022/07/02 03:24:45;;;;;;;1.23;1.20;;;9.90;99.90;;;;;;485203;245;27853;-71
2022/07/02 03:26:46;;;;;;;1.50;1.40;;;9.90;99.90;;;;;;485431;245;27918;-70
2022/07/02 03:28:47;;;;;;;1.30;1.30;;;9.80;99.90;;;;;;485403;245;27756;-70
2022/07/02 03:30:48;;;;;;;1.53;1.43;;;9.80;99.90;;;;;;485125;245;27796;-72
2022/07/02 03:32:50;;;;;;;1.50;1.40;;;9.80;99.90;;;;;;489287;241;27790;-70
2022/07/02 03:34:51;;;;;;;1.30;1.20;;;9.90;99.90;;;;;;488160;241;27978;-71
2022/07/02 03:36:52;;;;;;;1.47;1.40;;;9.80;99.90;;;;;;489093;241;27935;-70
2022/07/02 03:38:53;;;;;;;1.50;1.40;;;9.90;99.90;;;;;;485432;245;27866;-71
2022/07/02 03:40:54;;;;;;;1.30;1.30;;;9.90;99.90;;;;;;485454;245;27892;-71
2022/07/02 03:42:56;;;;;;;1.40;1.30;;;9.90;99.90;;;;;;485408;245;27867;-70
2022/07/02 03:44:57;;;;;;;2.30;1.50;;;9.90;99.90;;;;;;485403;245;27871;-71
2022/07/02 03:46:58;;;;;;;1.50;1.40;;;9.80;99.90;;;;;;485278;245;27902;-71
2022/07/02 03:48:59;;;;;;;1.30;1.20;;;9.90;99.90;;;;;;485457;245;27932;-70
2022/07/02 03:51:01;;;;;;;1.60;1.50;;;9.90;99.90;;;;;;485462;245;28462;-72
2022/07/02 03:53:02;;;;;;;2.00;1.30;;;9.80;99.90;;;;;;485416;245;28415;-71
2022/07/02 03:55:04;;;;;;;1.10;1.10;;;9.80;99.90;;;;;;485442;245;28387;-71
2022/07/02 03:57:04;;;;;;;1.33;1.23;;;9.80;99.90;;;;;;485425;245;28713;-73
2022/07/02 03:59:06;;;;;;;1.27;1.20;;;9.90;99.90;;;;;;485405;245;28049;-71
2022/07/02 04:01:07;;;;;;;2.80;1.30;;;10.00;99.90;;;;;;485441;245;28406;-71
2022/07/02 04:03:08;;;;;;;1.27;1.27;;;10.00;99.90;;;;;;488751;241;27829;-70
2022/07/02 04:05:09;;;;;;;1.63;1.53;;;9.90;99.90;;;;;;487765;241;27909;-71
2022/07/02 04:07:11;;;;;;;1.37;1.27;;;9.90;99.90;;;;;;488827;241;27857;-71
2022/07/02 04:09:12;;;;;;;1.30;1.30;;;9.90;99.90;;;;;;485456;245;27960;-70
2022/07/02 04:11:13;;;;;;;1.30;1.30;;;10.00;99.90;;;;;;485434;245;27612;-71
2022/07/02 04:13:14;;;;;;;2.20;1.40;;;10.00;99.90;;;;;;485352;245;27819;-70
2022/07/02 04:15:16;;;;;;;1.30;1.30;;;10.10;99.90;;;;;;485429;245;27995;-70
2022/07/02 04:17:17;;;;;;;1.40;1.30;;;10.10;99.90;;;;;;485471;245;27819;-70
2022/07/02 04:19:18;;;;;;;1.60;1.50;;;10.10;99.90;;;;;;485431;245;27851;-70
2022/07/02 04:21:19;;;;;;;1.23;1.20;;;10.10;99.90;;;;;;485457;245;27875;-70
2022/07/02 04:23:21;;;;;;;1.50;1.50;;;10.20;99.90;;;;;;485345;245;28399;-70
2022/07/02 04:25:22;;;;;;;1.47;1.40;;;10.20;99.90;;;;;;485383;245;28360;-71
2022/07/02 04:27:23;;;;;;;1.50;1.30;;;10.30;99.90;;;;;;485355;245;28354;-71
2022/07/02 04:29:24;;;;;;;1.20;1.20;;;10.40;99.90;;;;;;485409;245;27896;-70
2022/07/02 04:31:26;;;;;;;1.50;1.40;;;10.50;99.90;;;;;;485417;245;27977;-71
2022/07/02 04:33:27;;;;;;;1.40;1.30;;;10.60;99.90;;;;;;487000;241;27460;-71
2022/07/02 04:35:28;;;;;;;1.37;1.33;;;10.70;99.90;;;;;;490099;241;27632;-70
2022/07/02 04:37:30;;;;;;;1.47;1.40;;;10.70;99.90;;;;;;493390;241;28320;-73
2022/07/02 04:39:31;;;;;;;1.30;1.30;;;10.70;99.90;;;;;;493831;241;27990;-71
2022/07/02 04:41:32;;;;;;;1.57;1.47;;;10.70;99.90;;;;;;494080;241;28040;-71
2022/07/02 04:43:33;;;;;;;1.30;1.30;;;10.70;99.90;;;;;;494028;241;28085;-70
2022/07/02 04:45:35;;;;;;;1.20;1.20;;;10.70;99.90;;;;;;493968;241;27758;-71
2022/07/02 04:47:36;;;;;;;1.30;1.30;;;10.80;99.90;;;;;;494047;241;28570;-74
2022/07/02 04:49:37;;;;;;;1.10;1.10;;;10.80;99.90;;;;;;494012;241;28527;-72
2022/07/02 04:51:38;;;;;;;1.50;1.40;;;10.90;99.90;;;;;;493773;241;28574;-71
2022/07/02 04:53:40;;;;;;;1.70;1.60;;;10.90;99.90;;;;;;494049;241;28284;-70
2022/07/02 04:55:41;;;;;;;3.33;1.30;;;11.00;99.90;;;;;;494021;241;28106;-70
2022/07/02 04:57:42;;;;;;;1.33;1.33;;;11.00;99.90;;;;;;494039;241;27982;-73
2022/07/02 04:59:44;;;;;;;1.60;1.50;;;11.00;99.90;;;;;;494055;241;28003;-71
2022/07/02 05:01:45;;;;;;;1.20;1.20;;;11.10;99.90;;;;;;493995;241;28107;-71
2022/07/02 05:03:46;;;;;;;1.50;1.40;;;11.20;99.90;;;;;;493922;241;27825;-70
2022/07/02 05:05:47;;;;;;;1.40;1.40;;;11.20;99.90;;;;;;494009;241;28091;-71
2022/07/02 05:07:48;;;;;;;1.50;1.40;;;11.30;99.90;;;;;;494068;241;28083;-72
2022/07/02 05:09:50;;;;;;;1.10;1.10;;;11.30;99.90;;;;;;494079;241;27819;-70
2022/07/02 05:11:51;;;;;;;1.40;1.30;;;11.40;99.90;;;;;;494019;241;27997;-72
2022/07/02 05:13:52;;;;;;;1.50;1.40;;;11.50;99.90;;;;;;494048;241;28462;-71
2022/07/02 05:15:53;;;;;;;1.47;1.40;;;11.60;99.90;;;;;;494041;241;28413;-70
2022/07/02 05:17:55;;;;;;;1.50;1.50;;;11.70;99.90;;;;;;493061;237;28986;-72
2022/07/02 05:19:56;;;;;;;1.47;1.47;;;11.70;99.90;;;;;;490587;237;28040;-70
2022/07/02 05:21:57;;;;;;;1.40;1.40;;;11.70;99.90;;;;;;486155;241;27985;-71
2022/07/02 05:23:58;;;;;;;1.50;1.40;;;11.80;99.90;;;;;;488563;241;28096;-71
2022/07/02 05:26:00;;;;;;;1.50;1.40;;;11.90;99.90;;;;;;491416;241;28182;-71
2022/07/02 05:28:01;;;;;;;1.50;1.40;;;11.90;99.90;;;;;;493881;237;28292;-73
2022/07/02 05:30:02;;;;;;;1.60;1.50;;;12.00;99.90;;;;;;495410;237;28315;-70
2022/07/02 05:32:03;;;;;;;1.40;1.40;;;12.10;99.90;;;;;;489748;237;28107;-71
2022/07/02 05:34:05;;;;;;;1.33;1.33;;;12.10;99.90;;;;;;492251;241;28062;-70
2022/07/02 05:36:06;;;;;;;1.60;1.50;;;12.20;99.90;;;;;;489468;241;28269;-71
2022/07/02 05:38:07;;;;;;;1.63;1.60;;;12.30;99.90;;;;;;490814;241;28644;-71
2022/07/02 05:40:08;;;;;;;1.30;1.30;;;12.30;99.90;;;;;;487595;243;28854;-70
2022/07/02 05:42:10;;;;;;;1.60;1.50;;;12.40;99.90;;;;;;487638;243;28877;-72
2022/07/02 05:44:11;;;;;;;1.30;1.30;;;12.50;99.90;;;;;;487488;244;27976;-71
2022/07/02 05:46:12;;;;;;;1.33;1.33;;;12.60;99.90;;;;;;487570;243;28345;-70
2022/07/02 05:48:13;;;;;;;1.70;1.60;;;12.60;99.90;;;;;;487618;243;28229;-73
2022/07/02 05:50:15;;;;;;;1.83;1.40;;;12.70;99.90;;;;;;487887;237;28506;-73
2022/07/02 05:52:17;;;;;;;1.83;1.73;;;12.80;99.90;;;;;;488234;237;28097;-71
2022/07/02 05:54:17;;;;;;;1.67;1.57;;;12.90;99.90;;;;;;486054;241;28286;-71
2022/07/02 05:56:18;;;;;;;1.60;1.50;;;13.00;99.90;;;;;;490704;241;28030;-73
2022/07/02 05:58:20;;;;;;;1.53;1.43;;;13.00;99.90;;;;;;488788;241;28193;-74
2022/07/02 06:00:21;;;;;;;1.33;1.33;;;13.20;99.90;;;;;;487271;241;28561;-71
2022/07/02 06:02:22;;;;;;;1.40;1.30;;;13.30;99.90;;;;;;488026;237;29634;-72
2022/07/02 06:04:23;;;;;;;1.60;1.50;;;13.30;99.90;;;;;;490156;237;28862;-72
2022/07/02 06:08:45;;;;;;;1.40;1.30;;;13.50;99.90;;;;;;488175;237;29019;-72
2022/07/02 06:10:46;;;;;;;1.70;1.60;;;13.60;99.90;;;;;;489218;237;28172;-70
2022/07/02 06:12:48;;;;;;;1.40;1.30;;;13.80;99.90;;;;;;492010;240;28467;-72
2022/07/02 06:14:49;;;;;;;1.50;1.40;;;13.90;99.90;;;;;;492313;239;28258;-72
2022/07/02 06:16:50;;;;;;;1.43;1.43;;;14.00;99.90;;;;;;491349;241;28211;-75
2022/07/02 06:18:53;;;;;;;1.20;1.20;;;14.10;99.90;;;;;;491364;241;28217;-73
2022/07/02 06:20:54;;;;;;;1.63;1.53;;;14.20;99.90;;;;;;490016;240;28299;-72
2022/07/02 06:22:55;;;;;;;1.50;1.40;;;14.60;99.90;;;;;;488579;243;28279;-72
2022/07/02 06:24:58;;;;;;;1.40;1.30;;;;;;;;;;488488;241;28162;-72
2022/07/02 06:29:04;;;;;;;1.37;1.37;;;15.20;99.90;;;;;;483057;246;28347;-72
2022/07/02 06:31:06;;;;;;;1.20;1.20;;;15.30;99.90;;;;;;482938;246;28579;-72
2022/07/02 06:33:08;;;;;;;2.30;1.63;;;15.30;99.90;;;;;;482162;246;28179;-72
2022/07/02 06:35:09;;;;;;;1.93;1.80;;;15.50;99.90;;;;;;482769;246;28410;-72
2022/07/02 06:37:10;;;;;;;1.77;1.70;;;15.70;99.90;;;;;;482993;246;29002;-72
2022/07/02 06:39:12;;;;;;;1.50;1.40;;;16.00;99.90;;;;;;482914;246;28830;-73
2022/07/02 06:43:32;;;;;;;1.50;1.50;;;16.00;99.90;;;;;;482788;246;28606;-72
2022/07/02 06:45:41;;;;;;;1.50;1.40;;;16.00;99.90;;;;;;483064;246;28777;-72
2022/07/02 06:47:42;;;;;;;1.27;1.27;;;16.10;99.90;;;;;;482922;246;28760;-72
2022/07/02 06:49:47;;;;;;;1.50;1.40;;;16.30;99.90;;;;;;483107;246;29180;-72
2022/07/02 06:51:48;;;;;;;1.50;1.50;;;16.70;99.90;;;;;;483004;246;29349;-72
2022/07/02 06:54:02;;;;;;;1.50;1.50;;;17.00;99.90;;;;;;483075;246;28819;-72
2022/07/02 06:56:04;;;;;;;1.20;1.20;;;16.90;99.90;;;;;;482961;246;28796;-72
2022/07/02 06:58:06;;;;;;;1.57;1.47;;;17.20;99.90;;;;;;483080;246;28765;-71
2022/07/02 07:00:07;;;;;;;1.60;1.50;;;17.40;99.90;;;;;;481747;246;28869;-72
2022/07/02 07:02:08;;;;;;;2.13;1.53;;;17.40;99.90;;;;;;483118;246;28744;-73
2022/07/02 07:04:10;;;;;;;1.80;1.70;;;17.50;99.90;;;;;;482854;246;29265;-72
2022/07/02 07:06:25;;;;;;;1.60;1.50;;;17.60;99.90;;;;;;482978;246;29203;-72
2022/07/02 07:08:22;;;;;;;1.80;1.70;;;17.70;99.90;;;;;;479911;245;28753;-72
2022/07/02 07:10:34;;;;;;;1.73;1.63;;;17.70;99.90;;;;;;474925;250;28982;-72
2022/07/02 07:12:35;;;;;;;1.33;1.30;;;17.80;99.90;;;;;;474952;250;28874;-71
2022/07/02 07:14:36;;;;;;;1.90;1.43;;;17.80;99.90;;;;;;474927;250;28904;-72
2022/07/02 07:16:37;;;;;;;1.73;1.37;;;17.70;99.90;;;;;;474929;250;28921;-72
2022/07/02 07:18:39;;;;;;;1.47;1.47;;;17.50;99.90;;;;;;474797;250;28947;-72
2022/07/02 07:20:40;;;;;;;2.10;1.47;;;17.60;99.90;;;;;;474886;250;29425;-72
2022/07/02 07:22:41;;;;;;;1.37;1.20;;;17.80;99.90;;;;;;474863;250;29325;-72
2022/07/02 07:24:42;;;;;;;1.47;1.37;;;17.80;99.90;;;;;;474924;250;28930;-73
2022/07/02 07:26:45;;;;;;;1.57;1.37;;;17.80;99.90;;;;;;474957;250;29415;-72
2022/07/02 07:28:48;;;;;;;1.23;1.20;;;18.00;99.90;;;;;;474847;250;29462;-72
2022/07/02 07:30:49;;;;;;;1.73;1.33;;;17.90;99.90;;;;;;474831;250;29021;-72
2022/07/02 07:32:56;;;;;;;2.20;1.50;;;18.00;99.90;;;;;;474886;250;28905;-72
2022/07/02 07:34:57;;;;;;;1.47;1.40;;;18.00;99.90;;;;;;473362;250;28706;-72
2022/07/02 07:36:58;;;;;;;1.50;1.40;;;18.20;99.90;;;;;;473266;251;29189;-72
2022/07/02 07:39:09;;;;;;;1.50;1.40;;;18.30;99.90;;;;;;473316;251;29196;-72
2022/07/02 07:41:10;;;;;;;1.50;1.40;;;18.30;99.90;;;;;;478058;246;29429;-72
2022/07/02 07:43:20;;;;;;;1.20;1.20;;;18.20;99.90;;;;;;482956;246;29260;-72
2022/07/02 07:45:21;;;;;;;1.33;1.23;;;18.30;99.90;;;;;;482640;246;28928;-73
2022/07/02 07:47:30;;;;;;;1.30;1.20;;;18.40;99.90;;;;;;482402;246;29304;-73
2022/07/02 07:49:32;;;;;;;1.20;1.20;;;18.30;99.90;;;;;;482225;246;28768;-72
2022/07/02 07:51:34;;;;;;;1.50;1.40;;;18.40;99.90;;;;;;479706;246;29254;-72
2022/07/02 07:53:34;;;;;;;1.50;1.40;;;18.40;99.90;;;;;;478573;248;30201;-72
2022/07/02 07:55:36;;;;;;;1.77;1.53;;;18.60;99.90;;;;;;486752;244;30050;-72
2022/07/02 07:57:39;;;;;;;2.03;1.37;;;18.40;99.90;;;;;;492922;240;29173;-72
2022/07/02 07:59:40;;;;;;;1.27;1.27;;;18.40;99.90;;;;;;487317;242;28734;-72
2022/07/02 08:01:44;;;;;;;3.43;1.30;;;18.70;99.90;;;;;;493117;241;29228;-72
2022/07/02 08:03:45;;;;;;;2.03;1.53;;;18.80;99.90;;;;;;487555;242;28730;-72
2022/07/02 08:08:11;;;;;;;1.50;1.40;;;18.60;99.90;;;;;;487176;244;28734;-72
2022/07/02 08:10:12;;;;;;;1.37;1.30;;;18.60;99.90;;;;;;493026;241;28689;-72
2022/07/02 08:12:13;;;;;;;2.03;1.30;;;18.60;99.90;;;;;;487350;242;28771;-72
2022/07/02 08:14:16;;;;;;;1.60;1.50;;;18.70;99.90;;;;;;493033;241;28670;-72
2022/07/02 08:16:17;;;;;;;1.50;1.40;;;18.80;99.90;;;;;;476875;244;29524;-72
2022/07/02 08:18:18;;;;;;;1.47;1.40;;;18.90;99.90;;;;;;492947;241;29261;-72
2022/07/02 08:20:19;;;;;;;1.77;1.30;;;18.80;99.90;;;;;;492919;241;29290;-72
2022/07/02 08:22:21;;;;;;;1.70;1.60;;;19.10;99.90;;;;;;492933;241;29244;-72
2022/07/02 08:24:22;;;;;;;1.57;1.47;;;19.20;99.90;;;;;;492893;241;28819;-73
2022/07/02 08:26:23;;;;;;;1.50;1.40;;;19.10;99.90;;;;;;498621;237;28812;-72
2022/07/02 08:28:24;;;;;;;1.50;1.40;;;19.10;99.90;;;;;;482855;243;28832;-72
2022/07/02 08:30:26;;;;;;;1.60;1.50;;;19.40;99.90;;;;;;476891;247;29000;-72
2022/07/02 08:32:27;;;;;;;2.30;1.83;;;19.30;99.90;;;;;;480346;247;28604;-72
2022/07/02 08:34:28;;;;;;;1.20;1.20;;;19.30;99.90;;;;;;476666;249;29204;-71
2022/07/02 08:36:30;;;;;;;2.00;1.40;;;19.20;99.90;;;;;;476677;249;29271;-72
2022/07/02 08:38:32;;;;;;;1.63;1.63;;;19.50;99.90;;;;;;476688;249;28802;-71
2022/07/02 08:40:33;;;;;;;1.30;1.30;;;19.50;99.90;;;;;;476660;249;28840;-72
2022/07/02 08:42:35;;;;;;;1.57;1.47;;;19.60;99.90;;;;;;476686;249;29332;-72
2022/07/02 08:44:36;;;;;;;1.20;1.20;;;19.60;99.90;;;;;;476646;249;29262;-71
2022/07/02 08:46:38;;;;;;;3.90;1.57;;;19.50;99.90;;;;;;476361;246;29330;-75
2022/07/02 08:48:39;;;;;;;1.70;1.50;;;19.60;99.90;;;;;;501613;235;29215;-70
2022/07/02 08:50:40;;;;;;;1.17;1.17;;;19.60;99.90;;;;;;495195;238;28834;-71
2022/07/02 08:52:41;;;;;;;1.37;1.20;;;19.70;99.90;;;;;;486424;243;28925;-70
2022/07/02 08:54:43;;;;;;;1.57;1.20;;;20.00;99.90;;;;;;500098;237;28528;-74
2022/07/02 08:56:44;;;;;;;1.40;1.30;;;20.00;99.90;;;;;;481378;240;28852;-73
2022/07/02 08:58:45;;;;;;;1.53;1.43;;;20.00;99.90;;;;;;465166;253;28960;-70
2022/07/02 09:00:46;;;;;;;3.37;1.30;;;20.00;99.90;;;;;;462542;254;28974;-71
2022/07/02 09:02:48;;;;;;;2.33;1.30;;;20.00;99.90;;;;;;469116;253;28878;-70
2022/07/02 09:04:49;;;;;;;1.20;1.10;;;20.20;99.90;;;;;;469139;253;28837;-70
2022/07/02 09:06:52;;;;;;;1.53;1.20;;;20.20;99.90;;;;;;471393;242;28831;-74
2022/07/02 09:08:51;;;;;;;1.13;1.13;;;20.30;99.90;;;;;;487213;241;29291;-71
2022/07/02 09:10:53;;;;;;;1.77;1.43;;;20.30;99.90;;;;;;482060;246;29275;-72
2022/07/02 09:12:54;;;;;;;1.13;1.13;;;20.30;99.90;;;;;;492847;241;29103;-70
2022/07/02 09:14:55;;;;;;;1.47;1.37;;;20.40;99.90;;;;;;482501;244;28743;-71
2022/07/02 09:16:56;;;;;;;1.30;1.30;;;20.40;99.90;;;;;;492823;241;28675;-73
2022/07/02 09:18:58;;;;;;;7.53;1.20;;;20.50;99.90;;;;;;482508;246;28759;-70
2022/07/02 09:20:59;;;;;;;2.27;1.13;;;20.50;99.90;;;;;;492858;241;28671;-73
2022/07/02 09:23:00;;;;;;;1.67;1.27;;;20.40;99.90;;;;;;482515;246;28730;-70
2022/07/02 09:25:01;;;;;;;1.40;1.30;;;20.60;99.90;;;;;;492797;241;28663;-70
2022/07/02 09:27:03;;;;;;;1.27;1.17;;;20.80;99.90;;;;;;482478;246;29110;-74
2022/07/02 09:29:04;;;;;;;1.30;1.20;;;20.70;99.90;;;;;;489773;241;35231;-70
2022/07/02 09:31:06;;;;;;;1.27;1.23;;;20.50;99.90;;;;;;482473;246;27431;-71
2022/07/02 09:35:26;;;;;;;10.30;2.23;;;20.80;99.90;;;;;;477696;248;28782;-70
2022/07/02 09:37:28;;;;;;;1.30;1.20;;;20.80;99.90;;;;;;492828;241;28701;-70
2022/07/02 09:39:29;;;;;;;3.13;1.17;;;20.80;99.90;;;;;;480954;246;28744;-70
2022/07/02 09:41:30;;;;;;;1.10;1.10;;;20.90;99.90;;;;;;480323;245;28899;-71
2022/07/02 09:43:31;;;;;;;1.03;1.03;;;20.80;99.90;;;;;;480329;245;29384;-72
2022/07/02 09:45:32;;;;;;;1.20;1.20;;;20.90;99.90;;;;;;480339;246;29191;-70
2022/07/02 09:47:34;;;;;;;1.73;1.20;;;20.80;99.90;;;;;;480308;245;29319;-71
2022/07/02 09:49:35;;;;;;;1.20;1.10;;;20.60;99.90;;;;;;480328;245;29107;-71
2022/07/02 09:51:36;;;;;;;1.67;1.57;;;20.90;99.90;;;;;;480305;245;28835;-70
2022/07/02 09:53:37;;;;;;;3.77;1.30;;;21.00;99.90;;;;;;480362;245;28768;-72
2022/07/02 09:55:39;;;;;;;1.23;1.13;;;21.00;99.90;;;;;;480345;245;28849;-71
2022/07/02 09:57:41;;;;;;;1.20;1.10;;;21.00;99.90;;;;;;480297;245;28767;-70
2022/07/02 09:59:41;;;;;;;1.23;1.13;;;20.90;99.90;;;;;;480277;247;28835;-70
2022/07/02 10:01:42;;;;;;;1.60;1.00;;;20.90;99.90;;;;;;480361;245;28821;-70
2022/07/02 10:03:44;;;;;;;1.10;1.10;;;20.90;99.90;;;;;;480334;246;28779;-73
2022/07/02 10:05:45;;;;;;;1.60;1.50;;;21.10;99.90;;;;;;480331;245;28826;-71
2022/07/02 10:07:46;;;;;;;1.20;1.20;;;21.10;99.90;;;;;;480347;245;29250;-70
2022/07/02 10:09:47;;;;;;;2.40;1.57;;;21.40;99.90;;;;;;480354;245;29544;-70
2022/07/02 10:11:49;;;;;;;1.50;1.27;;;21.60;99.90;;;;;;480340;245;29475;-70
2022/07/02 10:13:50;;;;;;;1.40;1.30;;;21.40;99.90;;;;;;480351;245;28828;-71
2022/07/02 10:15:52;;;;;;;1.10;1.00;;;21.40;99.90;;;;;;480297;245;28835;-70
2022/07/02 10:17:52;;;;;;;1.30;1.30;;;21.60;99.90;;;;;;480285;247;28795;-71
2022/07/02 10:19:54;;;;;;;1.40;1.10;;;21.70;99.90;;;;;;480322;245;28871;-70
2022/07/02 10:21:55;;;;;;;1.13;1.03;;;21.50;99.90;;;;;;480343;245;28838;-71
2022/07/02 10:23:56;;;;;;;1.10;1.10;;;21.40;99.90;;;;;;480322;245;28797;-72
2022/07/02 10:25:57;;;;;;;1.20;1.10;;;21.50;99.90;;;;;;480359;245;28746;-70
2022/07/02 10:27:59;;;;;;;1.03;1.03;;;21.50;99.90;;;;;;480345;245;28811;-71
2022/07/02 10:30:00;;;;;;;1.37;1.27;;;21.50;99.90;;;;;;480318;245;28789;-74
2022/07/02 10:32:01;;;;;;;1.13;1.13;;;21.50;99.90;;;;;;480325;247;29213;-71
2022/07/02 10:34:02;;;;;;;1.30;1.20;;;21.80;99.90;;;;;;480287;245;29253;-71
2022/07/02 10:36:04;;;;;;;1.00;1.00;;;21.70;99.90;;;;;;480340;245;29313;-71
2022/07/02 10:38:05;;;;;;;1.27;1.17;;;21.50;99.90;;;;;;480356;245;29416;-70
2022/07/02 10:40:06;;;;;;;2.10;1.10;;;21.50;99.90;;;;;;480349;245;28966;-74
2022/07/02 10:42:07;;;;;;;1.13;1.00;;;21.70;99.90;;;;;;480359;246;28844;-71
2022/07/02 10:44:09;;;;;;;1.00;1.00;;;21.90;99.90;;;;;;480386;245;28965;-72
2022/07/02 10:46:10;;;;;;;1.30;1.20;;;21.90;99.90;;;;;;480354;245;28918;-70
2022/07/02 10:48:11;;;;;;;1.30;1.20;;;21.80;99.90;;;;;;480346;247;28962;-70